Richards, Missouri
Current Conditions -  °F | °C
As of 6:53 AM on Thursday 30 Oct 2014 (Local Time) from KJLN Reporting Station
Broken Clouds Broken Clouds  
Wind Chill: 50°   Ceiling: 9500
Heat Index: 50°   Visibility: 10mi
Dew Point: 39°   Wind: 9mph
Humidity: 66%   Direction: 190°S
Pressure: 30.09"   Gusts: NA
Location:  37.91°N, 94.56°W
Report Text: KJLN 301153Z 19008KT 10SM BKN095 10/04 A3009 RMK AO2 SLP188 T01000039 10100 20078 55003
Loading
Personal Weather Stations






























Interactive Weather Map
Tropical Storm Tracking
New forecast layout! Learn more

10-Day Weather Forecast

Advertisements
Track Severe Weather on mobile